sensor_id;sensor_type;location;lat;lon;timestamp;P1;durP1;ratioP1;P2;durP2;ratioP2
11982;SDS011;72623;51.184;7.176;2023-10-19T00:01:21;13.17;;;8.93;;
11982;SDS011;72623;51.184;7.176;2023-10-19T00:03:51;11.80;;;8.40;;
11982;SDS011;72623;51.184;7.176;2023-10-19T00:06:21;11.37;;;8.33;;
11982;SDS011;72623;51.184;7.176;2023-10-19T00:08:49;12.40;;;8.73;;
11982;SDS011;72623;51.184;7.176;2023-10-19T00:11:17;12.43;;;8.90;;
11982;SDS011;72623;51.184;7.176;2023-10-19T00:13:48;14.27;;;9.63;;
11982;SDS011;72623;51.184;7.176;2023-10-19T00:16:15;11.93;;;9.33;;
11982;SDS011;72623;51.184;7.176;2023-10-19T00:18:45;13.40;;;9.70;;
11982;SDS011;72623;51.184;7.176;2023-10-19T00:21:13;13.77;;;9.73;;
11982;SDS011;72623;51.184;7.176;2023-10-19T00:23:46;12.57;;;8.77;;
11982;SDS011;72623;51.184;7.176;2023-10-19T00:26:13;12.43;;;8.57;;
11982;SDS011;72623;51.184;7.176;2023-10-19T00:28:42;10.67;;;8.27;;
11982;SDS011;72623;51.184;7.176;2023-10-19T00:31:11;10.33;;;7.83;;
11982;SDS011;72623;51.184;7.176;2023-10-19T00:33:38;13.80;;;8.47;;
11982;SDS011;72623;51.184;7.176;2023-10-19T00:36:09;11.57;;;8.77;;
11982;SDS011;72623;51.184;7.176;2023-10-19T00:38:38;11.97;;;8.73;;
11982;SDS011;72623;51.184;7.176;2023-10-19T00:41:07;11.13;;;9.00;;
11982;SDS011;72623;51.184;7.176;2023-10-19T00:43:39;11.33;;;8.97;;
11982;SDS011;72623;51.184;7.176;2023-10-19T00:46:13;11.03;;;8.73;;
11982;SDS011;72623;51.184;7.176;2023-10-19T00:48:49;11.27;;;9.00;;
11982;SDS011;72623;51.184;7.176;2023-10-19T00:51:25;12.40;;;8.93;;
11982;SDS011;72623;51.184;7.176;2023-10-19T00:54:12;15.23;;;10.33;;
11982;SDS011;72623;51.184;7.176;2023-10-19T00:56:47;14.33;;;9.97;;
11982;SDS011;72623;51.184;7.176;2023-10-19T00:59:20;13.00;;;9.53;;
11982;SDS011;72623;51.184;7.176;2023-10-19T01:01:49;12.53;;;9.93;;
11982;SDS011;72623;51.184;7.176;2023-10-19T01:04:23;16.70;;;11.23;;
11982;SDS011;72623;51.184;7.176;2023-10-19T01:06:57;16.33;;;12.07;;
11982;SDS011;72623;51.184;7.176;2023-10-19T01:09:30;19.03;;;11.23;;
11982;SDS011;72623;51.184;7.176;2023-10-19T01:12:01;13.37;;;10.43;;
11982;SDS011;72623;51.184;7.176;2023-10-19T01:14:31;15.60;;;11.17;;
11982;SDS011;72623;51.184;7.176;2023-10-19T01:16:57;16.10;;;11.53;;
11982;SDS011;72623;51.184;7.176;2023-10-19T01:19:25;15.33;;;11.90;;
11982;SDS011;72623;51.184;7.176;2023-10-19T01:21:53;14.47;;;11.40;;
11982;SDS011;72623;51.184;7.176;2023-10-19T01:24:25;17.73;;;11.33;;
11982;SDS011;72623;51.184;7.176;2023-10-19T01:27:05;16.13;;;11.20;;
11982;SDS011;72623;51.184;7.176;2023-10-19T01:29:34;14.90;;;10.90;;
11982;SDS011;72623;51.184;7.176;2023-10-19T01:32:03;17.93;;;11.00;;
11982;SDS011;72623;51.184;7.176;2023-10-19T01:34:33;14.73;;;11.87;;
11982;SDS011;72623;51.184;7.176;2023-10-19T01:37:01;17.10;;;11.13;;
11982;SDS011;72623;51.184;7.176;2023-10-19T01:39:32;16.10;;;11.13;;
11982;SDS011;72623;51.184;7.176;2023-10-19T01:42:00;15.70;;;11.30;;
11982;SDS011;72623;51.184;7.176;2023-10-19T01:44:26;12.17;;;9.97;;
11982;SDS011;72623;51.184;7.176;2023-10-19T01:46:53;11.97;;;9.80;;
11982;SDS011;72623;51.184;7.176;2023-10-19T01:49:18;14.63;;;10.77;;
11982;SDS011;72623;51.184;7.176;2023-10-19T01:51:52;14.80;;;10.63;;
11982;SDS011;72623;51.184;7.176;2023-10-19T01:54:19;15.57;;;11.37;;
11982;SDS011;72623;51.184;7.176;2023-10-19T01:56:53;16.97;;;10.43;;
11982;SDS011;72623;51.184;7.176;2023-10-19T01:59:25;14.53;;;10.80;;
11982;SDS011;72623;51.184;7.176;2023-10-19T02:01:54;13.67;;;10.17;;
11982;SDS011;72623;51.184;7.176;2023-10-19T02:04:23;12.10;;;9.30;;
11982;SDS011;72623;51.184;7.176;2023-10-19T02:06:50;15.27;;;10.50;;
11982;SDS011;72623;51.184;7.176;2023-10-19T02:09:18;13.50;;;9.20;;
11982;SDS011;72623;51.184;7.176;2023-10-19T02:11:47;15.73;;;9.60;;
11982;SDS011;72623;51.184;7.176;2023-10-19T02:14:20;12.50;;;9.57;;
11982;SDS011;72623;51.184;7.176;2023-10-19T02:16:50;13.53;;;9.97;;
11982;SDS011;72623;51.184;7.176;2023-10-19T02:19:17;12.63;;;9.13;;
11982;SDS011;72623;51.184;7.176;2023-10-19T02:21:44;12.57;;;9.07;;
11982;SDS011;72623;51.184;7.176;2023-10-19T02:24:15;13.97;;;9.70;;
11982;SDS011;72623;51.184;7.176;2023-10-19T02:26:41;11.90;;;9.90;;
11982;SDS011;72623;51.184;7.176;2023-10-19T02:29:09;11.57;;;9.30;;
11982;SDS011;72623;51.184;7.176;2023-10-19T02:31:36;14.23;;;9.83;;
11982;SDS011;72623;51.184;7.176;2023-10-19T02:34:04;11.73;;;9.23;;
11982;SDS011;72623;51.184;7.176;2023-10-19T02:36:35;16.20;;;9.87;;
11982;SDS011;72623;51.184;7.176;2023-10-19T02:39:04;12.60;;;10.07;;
11982;SDS011;72623;51.184;7.176;2023-10-19T02:41:32;15.57;;;10.20;;
11982;SDS011;72623;51.184;7.176;2023-10-19T02:44:20;15.13;;;10.03;;
11982;SDS011;72623;51.184;7.176;2023-10-19T02:46:48;14.40;;;10.40;;
11982;SDS011;72623;51.184;7.176;2023-10-19T02:49:17;13.77;;;9.53;;
11982;SDS011;72623;51.184;7.176;2023-10-19T02:51:45;12.83;;;9.57;;
11982;SDS011;72623;51.184;7.176;2023-10-19T02:54:12;14.50;;;10.20;;
11982;SDS011;72623;51.184;7.176;2023-10-19T02:56:43;14.27;;;9.87;;
11982;SDS011;72623;51.184;7.176;2023-10-19T02:59:12;14.07;;;9.40;;
11982;SDS011;72623;51.184;7.176;2023-10-19T03:01:40;14.77;;;10.20;;
11982;SDS011;72623;51.184;7.176;2023-10-19T03:04:09;11.07;;;8.73;;
11982;SDS011;72623;51.184;7.176;2023-10-19T03:06:37;13.67;;;8.73;;
11982;SDS011;72623;51.184;7.176;2023-10-19T03:09:06;10.53;;;8.47;;
11982;SDS011;72623;51.184;7.176;2023-10-19T03:11:38;13.17;;;8.83;;
11982;SDS011;72623;51.184;7.176;2023-10-19T03:14:07;11.13;;;7.80;;
11982;SDS011;72623;51.184;7.176;2023-10-19T03:16:33;9.27;;;7.27;;
11982;SDS011;72623;51.184;7.176;2023-10-19T03:19:02;14.13;;;7.10;;
11982;SDS011;72623;51.184;7.176;2023-10-19T03:21:29;9.87;;;7.23;;
11982;SDS011;72623;51.184;7.176;2023-10-19T03:23:58;9.00;;;6.90;;
11982;SDS011;72623;51.184;7.176;2023-10-19T03:26:27;14.03;;;7.57;;
11982;SDS011;72623;51.184;7.176;2023-10-19T03:29:01;11.33;;;6.40;;
11982;SDS011;72623;51.184;7.176;2023-10-19T03:31:32;10.60;;;6.77;;
11982;SDS011;72623;51.184;7.176;2023-10-19T03:34:03;9.60;;;6.90;;
11982;SDS011;72623;51.184;7.176;2023-10-19T03:36:31;9.97;;;6.87;;
11982;SDS011;72623;51.184;7.176;2023-10-19T03:38:58;7.57;;;5.83;;
11982;SDS011;72623;51.184;7.176;2023-10-19T03:41:36;9.90;;;6.47;;
11982;SDS011;72623;51.184;7.176;2023-10-19T03:44:04;7.73;;;5.83;;
11982;SDS011;72623;51.184;7.176;2023-10-19T03:46:32;8.60;;;6.07;;
11982;SDS011;72623;51.184;7.176;2023-10-19T03:49:03;8.07;;;5.70;;
11982;SDS011;72623;51.184;7.176;2023-10-19T03:51:36;9.53;;;6.10;;
11982;SDS011;72623;51.184;7.176;2023-10-19T03:54:22;8.67;;;6.33;;
11982;SDS011;72623;51.184;7.176;2023-10-19T03:56:50;9.33;;;6.53;;
11982;SDS011;72623;51.184;7.176;2023-10-19T03:59:17;10.83;;;5.97;;
11982;SDS011;72623;51.184;7.176;2023-10-19T04:01:45;8.30;;;5.93;;
11982;SDS011;72623;51.184;7.176;2023-10-19T04:04:11;9.20;;;5.53;;
11982;SDS011;72623;51.184;7.176;2023-10-19T04:06:38;8.23;;;5.80;;
11982;SDS011;72623;51.184;7.176;2023-10-19T04:09:06;9.00;;;5.10;;
11982;SDS011;72623;51.184;7.176;2023-10-19T04:11:34;6.50;;;5.27;;
11982;SDS011;72623;51.184;7.176;2023-10-19T04:14:13;7.50;;;5.17;;
11982;SDS011;72623;51.184;7.176;2023-10-19T04:16:41;6.17;;;4.90;;
11982;SDS011;72623;51.184;7.176;2023-10-19T04:19:13;7.13;;;4.43;;
11982;SDS011;72623;51.184;7.176;2023-10-19T04:21:43;6.70;;;4.33;;
11982;SDS011;72623;51.184;7.176;2023-10-19T04:24:11;6.20;;;4.43;;
11982;SDS011;72623;51.184;7.176;2023-10-19T04:26:39;6.70;;;4.43;;
11982;SDS011;72623;51.184;7.176;2023-10-19T04:29:07;8.30;;;4.33;;
11982;SDS011;72623;51.184;7.176;2023-10-19T04:31:37;6.30;;;4.83;;
11982;SDS011;72623;51.184;7.176;2023-10-19T04:34:14;7.83;;;5.30;;
11982;SDS011;72623;51.184;7.176;2023-10-19T04:36:45;6.40;;;5.53;;
11982;SDS011;72623;51.184;7.176;2023-10-19T04:39:13;9.73;;;6.17;;
11982;SDS011;72623;51.184;7.176;2023-10-19T04:41:40;8.43;;;6.27;;
11982;SDS011;72623;51.184;7.176;2023-10-19T04:44:07;11.17;;;7.10;;
11982;SDS011;72623;51.184;7.176;2023-10-19T04:46:35;10.77;;;6.33;;
11982;SDS011;72623;51.184;7.176;2023-10-19T04:49:03;9.77;;;6.87;;
11982;SDS011;72623;51.184;7.176;2023-10-19T04:51:29;9.70;;;7.17;;
11982;SDS011;72623;51.184;7.176;2023-10-19T04:53:56;7.03;;;6.13;;
11982;SDS011;72623;51.184;7.176;2023-10-19T04:56:22;9.03;;;6.77;;
11982;SDS011;72623;51.184;7.176;2023-10-19T04:58:49;17.60;;;7.47;;
11982;SDS011;72623;51.184;7.176;2023-10-19T05:01:16;9.73;;;7.20;;
11982;SDS011;72623;51.184;7.176;2023-10-19T05:03:42;10.20;;;7.17;;
11982;SDS011;72623;51.184;7.176;2023-10-19T05:06:10;11.17;;;6.83;;
11982;SDS011;72623;51.184;7.176;2023-10-19T05:08:39;10.63;;;7.57;;
11982;SDS011;72623;51.184;7.176;2023-10-19T05:11:05;8.97;;;6.53;;
11982;SDS011;72623;51.184;7.176;2023-10-19T05:13:32;8.77;;;6.43;;
11982;SDS011;72623;51.184;7.176;2023-10-19T05:16:00;10.93;;;6.67;;
11982;SDS011;72623;51.184;7.176;2023-10-19T05:18:27;9.30;;;6.37;;
11982;SDS011;72623;51.184;7.176;2023-10-19T05:20:55;10.70;;;6.50;;
11982;SDS011;72623;51.184;7.176;2023-10-19T05:23:23;9.10;;;6.63;;
11982;SDS011;72623;51.184;7.176;2023-10-19T05:25:50;9.63;;;6.27;;
11982;SDS011;72623;51.184;7.176;2023-10-19T05:28:19;15.50;;;6.67;;
11982;SDS011;72623;51.184;7.176;2023-10-19T05:30:47;9.53;;;6.60;;
11982;SDS011;72623;51.184;7.176;2023-10-19T05:33:15;11.53;;;6.50;;
11982;SDS011;72623;51.184;7.176;2023-10-19T05:35:45;9.63;;;6.23;;
11982;SDS011;72623;51.184;7.176;2023-10-19T05:38:12;8.00;;;6.33;;
11982;SDS011;72623;51.184;7.176;2023-10-19T05:40:39;8.03;;;5.90;;
11982;SDS011;72623;51.184;7.176;2023-10-19T05:43:08;8.50;;;6.57;;
11982;SDS011;72623;51.184;7.176;2023-10-19T05:45:35;6.73;;;5.37;;
11982;SDS011;72623;51.184;7.176;2023-10-19T05:48:01;9.50;;;5.40;;
11982;SDS011;72623;51.184;7.176;2023-10-19T05:50:31;9.48;;;6.57;;
11982;SDS011;72623;51.184;7.176;2023-10-19T05:52:59;9.43;;;5.50;;
11982;SDS011;72623;51.184;7.176;2023-10-19T05:58:47;7.87;;;5.77;;
11982;SDS011;72623;51.184;7.176;2023-10-19T06:01:16;5.97;;;4.77;;
11982;SDS011;72623;51.184;7.176;2023-10-19T06:03:43;6.07;;;4.87;;
11982;SDS011;72623;51.184;7.176;2023-10-19T06:06:10;6.07;;;4.93;;
11982;SDS011;72623;51.184;7.176;2023-10-19T06:08:36;6.17;;;4.50;;
11982;SDS011;72623;51.184;7.176;2023-10-19T06:11:03;6.73;;;4.83;;
11982;SDS011;72623;51.184;7.176;2023-10-19T06:13:30;6.20;;;4.03;;
11982;SDS011;72623;51.184;7.176;2023-10-19T06:15:57;8.37;;;4.70;;
11982;SDS011;72623;51.184;7.176;2023-10-19T06:18:24;7.20;;;4.53;;
11982;SDS011;72623;51.184;7.176;2023-10-19T06:20:50;6.63;;;4.17;;
11982;SDS011;72623;51.184;7.176;2023-10-19T06:23:19;7.17;;;3.97;;
11982;SDS011;72623;51.184;7.176;2023-10-19T06:25:46;5.77;;;4.17;;
11982;SDS011;72623;51.184;7.176;2023-10-19T06:28:15;5.37;;;3.77;;
11982;SDS011;72623;51.184;7.176;2023-10-19T06:30:43;7.17;;;4.00;;
11982;SDS011;72623;51.184;7.176;2023-10-19T06:33:10;4.77;;;3.67;;
11982;SDS011;72623;51.184;7.176;2023-10-19T06:35:37;7.68;;;4.70;;
11982;SDS011;72623;51.184;7.176;2023-10-19T06:38:03;5.93;;;4.00;;
11982;SDS011;72623;51.184;7.176;2023-10-19T06:40:30;7.73;;;3.87;;
11982;SDS011;72623;51.184;7.176;2023-10-19T06:43:00;4.82;;;4.00;;
11982;SDS011;72623;51.184;7.176;2023-10-19T06:45:27;4.63;;;3.60;;
11982;SDS011;72623;51.184;7.176;2023-10-19T06:47:55;4.13;;;3.20;;
11982;SDS011;72623;51.184;7.176;2023-10-19T06:50:23;4.20;;;3.37;;
11982;SDS011;72623;51.184;7.176;2023-10-19T06:52:51;4.93;;;3.03;;
11982;SDS011;72623;51.184;7.176;2023-10-19T06:55:19;2.97;;;2.67;;
11982;SDS011;72623;51.184;7.176;2023-10-19T06:57:52;5.40;;;2.90;;
11982;SDS011;72623;51.184;7.176;2023-10-19T07:00:21;4.97;;;3.37;;
11982;SDS011;72623;51.184;7.176;2023-10-19T07:02:52;4.73;;;2.87;;
11982;SDS011;72623;51.184;7.176;2023-10-19T07:05:20;4.63;;;3.60;;
11982;SDS011;72623;51.184;7.176;2023-10-19T07:07:49;5.55;;;3.83;;
11982;SDS011;72623;51.184;7.176;2023-10-19T07:10:19;5.83;;;3.20;;
11982;SDS011;72623;51.184;7.176;2023-10-19T07:12:47;3.87;;;2.97;;
11982;SDS011;72623;51.184;7.176;2023-10-19T07:15:16;5.33;;;2.90;;
11982;SDS011;72623;51.184;7.176;2023-10-19T07:17:45;2.73;;;2.50;;
11982;SDS011;72623;51.184;7.176;2023-10-19T07:20:13;4.77;;;2.77;;
11982;SDS011;72623;51.184;7.176;2023-10-19T07:22:50;4.67;;;2.93;;
11982;SDS011;72623;51.184;7.176;2023-10-19T07:25:30;4.50;;;2.73;;
11982;SDS011;72623;51.184;7.176;2023-10-19T07:27:57;5.73;;;2.87;;
11982;SDS011;72623;51.184;7.176;2023-10-19T07:30:24;5.40;;;2.67;;
11982;SDS011;72623;51.184;7.176;2023-10-19T07:32:52;5.90;;;2.73;;
11982;SDS011;72623;51.184;7.176;2023-10-19T07:35:23;4.63;;;3.00;;
11982;SDS011;72623;51.184;7.176;2023-10-19T07:37:52;4.00;;;3.27;;
11982;SDS011;72623;51.184;7.176;2023-10-19T07:40:19;4.93;;;2.90;;
11982;SDS011;72623;51.184;7.176;2023-10-19T07:42:46;7.20;;;3.47;;
11982;SDS011;72623;51.184;7.176;2023-10-19T07:45:14;4.03;;;2.73;;
11982;SDS011;72623;51.184;7.176;2023-10-19T07:47:41;7.97;;;3.10;;
11982;SDS011;72623;51.184;7.176;2023-10-19T07:50:09;13.40;;;4.80;;
11982;SDS011;72623;51.184;7.176;2023-10-19T07:52:41;31.93;;;7.17;;
11982;SDS011;72623;51.184;7.176;2023-10-19T07:55:18;10.83;;;3.73;;
11982;SDS011;72623;51.184;7.176;2023-10-19T07:57:48;21.93;;;6.50;;
11982;SDS011;72623;51.184;7.176;2023-10-19T08:00:15;6.87;;;3.73;;
11982;SDS011;72623;51.184;7.176;2023-10-19T08:02:43;5.17;;;3.20;;
11982;SDS011;72623;51.184;7.176;2023-10-19T08:05:11;7.30;;;3.20;;
11982;SDS011;72623;51.184;7.176;2023-10-19T08:07:38;8.15;;;4.15;;
11982;SDS011;72623;51.184;7.176;2023-10-19T08:10:08;9.50;;;3.93;;
11982;SDS011;72623;51.184;7.176;2023-10-19T08:12:37;8.53;;;3.77;;
11982;SDS011;72623;51.184;7.176;2023-10-19T08:15:06;4.23;;;2.80;;
11982;SDS011;72623;51.184;7.176;2023-10-19T08:17:40;3.30;;;2.50;;
11982;SDS011;72623;51.184;7.176;2023-10-19T08:20:08;5.03;;;2.80;;
11982;SDS011;72623;51.184;7.176;2023-10-19T08:22:41;11.70;;;2.70;;
11982;SDS011;72623;51.184;7.176;2023-10-19T08:25:08;6.97;;;2.30;;
11982;SDS011;72623;51.184;7.176;2023-10-19T08:27:41;4.43;;;2.50;;
11982;SDS011;72623;51.184;7.176;2023-10-19T08:30:10;2.77;;;2.20;;
11982;SDS011;72623;51.184;7.176;2023-10-19T08:32:39;5.23;;;2.63;;
11982;SDS011;72623;51.184;7.176;2023-10-19T08:35:13;3.30;;;2.30;;
11982;SDS011;72623;51.184;7.176;2023-10-19T08:37:46;4.57;;;2.60;;
11982;SDS011;72623;51.184;7.176;2023-10-19T08:40:13;8.20;;;2.67;;
11982;SDS011;72623;51.184;7.176;2023-10-19T08:42:46;2.53;;;2.33;;
11982;SDS011;72623;51.184;7.176;2023-10-19T08:45:13;6.20;;;3.20;;
11982;SDS011;72623;51.184;7.176;2023-10-19T08:50:21;4.17;;;2.27;;
11982;SDS011;72623;51.184;7.176;2023-10-19T08:52:55;6.15;;;2.72;;
11982;SDS011;72623;51.184;7.176;2023-10-19T08:55:23;4.93;;;2.33;;
11982;SDS011;72623;51.184;7.176;2023-10-19T08:57:51;3.00;;;2.30;;
11982;SDS011;72623;51.184;7.176;2023-10-19T09:00:18;5.87;;;2.30;;
11982;SDS011;72623;51.184;7.176;2023-10-19T09:02:51;5.13;;;2.73;;
11982;SDS011;72623;51.184;7.176;2023-10-19T09:05:18;3.70;;;2.30;;
11982;SDS011;72623;51.184;7.176;2023-10-19T09:07:47;7.03;;;2.33;;
11982;SDS011;72623;51.184;7.176;2023-10-19T09:10:19;7.33;;;2.60;;
11982;SDS011;72623;51.184;7.176;2023-10-19T09:13:09;9.60;;;2.47;;
11982;SDS011;72623;51.184;7.176;2023-10-19T09:15:35;6.13;;;2.00;;
11982;SDS011;72623;51.184;7.176;2023-10-19T09:18:13;3.97;;;2.13;;
11982;SDS011;72623;51.184;7.176;2023-10-19T09:20:47;5.45;;;2.88;;
11982;SDS011;72623;51.184;7.176;2023-10-19T09:23:27;7.60;;;2.20;;
11982;SDS011;72623;51.184;7.176;2023-10-19T09:25:55;5.10;;;2.33;;
11982;SDS011;72623;51.184;7.176;2023-10-19T09:28:25;3.50;;;2.20;;
11982;SDS011;72623;51.184;7.176;2023-10-19T09:30:52;5.22;;;2.78;;
11982;SDS011;72623;51.184;7.176;2023-10-19T09:33:19;4.63;;;2.80;;
11982;SDS011;72623;51.184;7.176;2023-10-19T09:35:50;6.57;;;2.13;;
11982;SDS011;72623;51.184;7.176;2023-10-19T09:38:19;7.18;;;2.60;;
11982;SDS011;72623;51.184;7.176;2023-10-19T09:40:47;5.97;;;2.00;;
11982;SDS011;72623;51.184;7.176;2023-10-19T09:43:24;6.05;;;2.22;;
11982;SDS011;72623;51.184;7.176;2023-10-19T09:46:06;8.73;;;2.43;;
11982;SDS011;72623;51.184;7.176;2023-10-19T09:48:40;3.65;;;2.20;;
11982;SDS011;72623;51.184;7.176;2023-10-19T09:51:08;4.72;;;1.77;;
11982;SDS011;72623;51.184;7.176;2023-10-19T09:53:36;3.38;;;1.75;;
11982;SDS011;72623;51.184;7.176;2023-10-19T09:56:05;3.03;;;1.65;;
11982;SDS011;72623;51.184;7.176;2023-10-19T09:58:36;5.35;;;1.65;;
11982;SDS011;72623;51.184;7.176;2023-10-19T10:01:11;4.40;;;1.63;;
11982;SDS011;72623;51.184;7.176;2023-10-19T10:03:51;5.68;;;1.55;;
11982;SDS011;72623;51.184;7.176;2023-10-19T10:09:18;2.97;;;1.38;;
11982;SDS011;72623;51.184;7.176;2023-10-19T10:11:48;6.38;;;1.60;;
11982;SDS011;72623;51.184;7.176;2023-10-19T10:14:23;3.92;;;2.15;;
11982;SDS011;72623;51.184;7.176;2023-10-19T10:17:00;4.07;;;2.00;;
11982;SDS011;72623;51.184;7.176;2023-10-19T10:19:30;4.38;;;1.65;;
11982;SDS011;72623;51.184;7.176;2023-10-19T10:22:03;6.25;;;1.70;;
11982;SDS011;72623;51.184;7.176;2023-10-19T10:24:31;5.18;;;1.30;;
11982;SDS011;72623;51.184;7.176;2023-10-19T10:26:59;5.65;;;1.60;;
11982;SDS011;72623;51.184;7.176;2023-10-19T10:29:28;4.97;;;1.60;;
11982;SDS011;72623;51.184;7.176;2023-10-19T10:31:56;3.70;;;1.65;;
11982;SDS011;72623;51.184;7.176;2023-10-19T10:37:04;5.87;;;1.57;;
11982;SDS011;72623;51.184;7.176;2023-10-19T10:39:35;3.83;;;1.40;;
11982;SDS011;72623;51.184;7.176;2023-10-19T10:42:03;5.33;;;1.37;;
11982;SDS011;72623;51.184;7.176;2023-10-19T10:44:41;3.47;;;1.40;;
11982;SDS011;72623;51.184;7.176;2023-10-19T10:47:10;3.63;;;1.10;;
11982;SDS011;72623;51.184;7.176;2023-10-19T10:54:50;4.00;;;1.23;;
11982;SDS011;72623;51.184;7.176;2023-10-19T10:57:18;4.33;;;1.30;;
11982;SDS011;72623;51.184;7.176;2023-10-19T10:59:46;8.55;;;1.92;;
11982;SDS011;72623;51.184;7.176;2023-10-19T11:02:18;3.93;;;1.20;;
11982;SDS011;72623;51.184;7.176;2023-10-19T11:04:47;4.70;;;1.90;;
11982;SDS011;72623;51.184;7.176;2023-10-19T11:07:22;4.27;;;1.50;;
11982;SDS011;72623;51.184;7.176;2023-10-19T11:09:50;4.63;;;1.53;;
11982;SDS011;72623;51.184;7.176;2023-10-19T11:12:17;8.17;;;1.83;;
11982;SDS011;72623;51.184;7.176;2023-10-19T11:15:20;6.63;;;2.10;;
11982;SDS011;72623;51.184;7.176;2023-10-19T11:17:43;6.33;;;2.00;;
11982;SDS011;72623;51.184;7.176;2023-10-19T11:20:20;7.93;;;1.63;;
11982;SDS011;72623;51.184;7.176;2023-10-19T11:22:47;6.33;;;1.50;;
11982;SDS011;72623;51.184;7.176;2023-10-19T11:25:18;4.40;;;1.37;;
11982;SDS011;72623;51.184;7.176;2023-10-19T11:27:53;4.17;;;1.67;;
11982;SDS011;72623;51.184;7.176;2023-10-19T11:30:27;5.90;;;1.77;;
11982;SDS011;72623;51.184;7.176;2023-10-19T11:32:56;6.70;;;1.57;;
11982;SDS011;72623;51.184;7.176;2023-10-19T11:35:28;7.03;;;2.30;;
11982;SDS011;72623;51.184;7.176;2023-10-19T11:37:59;5.90;;;1.70;;
11982;SDS011;72623;51.184;7.176;2023-10-19T11:40:27;8.23;;;2.03;;
11982;SDS011;72623;51.184;7.176;2023-10-19T11:42:54;6.30;;;3.30;;
11982;SDS011;72623;51.184;7.176;2023-10-19T11:45:22;9.77;;;3.08;;
11982;SDS011;72623;51.184;7.176;2023-10-19T11:47:49;8.88;;;2.60;;
11982;SDS011;72623;51.184;7.176;2023-10-19T11:50:16;9.10;;;2.27;;
11982;SDS011;72623;51.184;7.176;2023-10-19T11:52:44;9.50;;;2.30;;
11982;SDS011;72623;51.184;7.176;2023-10-19T11:55:12;7.25;;;2.28;;
11982;SDS011;72623;51.184;7.176;2023-10-19T11:57:39;5.75;;;2.13;;
11982;SDS011;72623;51.184;7.176;2023-10-19T12:00:08;5.50;;;2.17;;
11982;SDS011;72623;51.184;7.176;2023-10-19T12:02:45;6.47;;;2.17;;
11982;SDS011;72623;51.184;7.176;2023-10-19T12:05:11;4.77;;;2.10;;
11982;SDS011;72623;51.184;7.176;2023-10-19T12:07:38;4.33;;;2.03;;
11982;SDS011;72623;51.184;7.176;2023-10-19T12:10:06;6.90;;;2.20;;
11982;SDS011;72623;51.184;7.176;2023-10-19T12:12:37;4.67;;;2.67;;
11982;SDS011;72623;51.184;7.176;2023-10-19T12:15:04;6.03;;;1.77;;
11982;SDS011;72623;51.184;7.176;2023-10-19T12:17:32;10.10;;;1.83;;
11982;SDS011;72623;51.184;7.176;2023-10-19T12:19:59;5.20;;;1.80;;
11982;SDS011;72623;51.184;7.176;2023-10-19T12:22:25;4.07;;;2.27;;
11982;SDS011;72623;51.184;7.176;2023-10-19T12:24:53;5.97;;;1.50;;
11982;SDS011;72623;51.184;7.176;2023-10-19T12:27:22;6.70;;;1.77;;
11982;SDS011;72623;51.184;7.176;2023-10-19T12:29:49;4.77;;;1.60;;
11982;SDS011;72623;51.184;7.176;2023-10-19T12:32:17;5.50;;;1.80;;
11982;SDS011;72623;51.184;7.176;2023-10-19T12:34:44;5.03;;;1.53;;
11982;SDS011;72623;51.184;7.176;2023-10-19T12:37:10;4.80;;;1.57;;
11982;SDS011;72623;51.184;7.176;2023-10-19T12:39:38;3.53;;;1.70;;
11982;SDS011;72623;51.184;7.176;2023-10-19T12:42:10;4.80;;;1.53;;
11982;SDS011;72623;51.184;7.176;2023-10-19T12:44:39;4.17;;;1.80;;
11982;SDS011;72623;51.184;7.176;2023-10-19T12:47:06;6.07;;;2.30;;
11982;SDS011;72623;51.184;7.176;2023-10-19T12:49:37;6.40;;;1.43;;
11982;SDS011;72623;51.184;7.176;2023-10-19T12:52:04;5.47;;;1.70;;
11982;SDS011;72623;51.184;7.176;2023-10-19T12:54:32;6.33;;;1.50;;
11982;SDS011;72623;51.184;7.176;2023-10-19T12:57:03;7.55;;;2.30;;
11982;SDS011;72623;51.184;7.176;2023-10-19T12:59:32;5.40;;;1.90;;
11982;SDS011;72623;51.184;7.176;2023-10-19T13:02:03;5.47;;;2.07;;
11982;SDS011;72623;51.184;7.176;2023-10-19T13:04:30;5.63;;;1.80;;
11982;SDS011;72623;51.184;7.176;2023-10-19T13:06:57;7.53;;;1.90;;
11982;SDS011;72623;51.184;7.176;2023-10-19T13:09:24;3.80;;;1.70;;
11982;SDS011;72623;51.184;7.176;2023-10-19T13:11:58;4.97;;;1.97;;
11982;SDS011;72623;51.184;7.176;2023-10-19T13:14:25;6.60;;;1.80;;
11982;SDS011;72623;51.184;7.176;2023-10-19T13:16:52;4.53;;;1.90;;
11982;SDS011;72623;51.184;7.176;2023-10-19T13:19:22;4.97;;;2.03;;
11982;SDS011;72623;51.184;7.176;2023-10-19T13:21:51;6.40;;;1.60;;
11982;SDS011;72623;51.184;7.176;2023-10-19T13:24:18;4.07;;;1.87;;
11982;SDS011;72623;51.184;7.176;2023-10-19T13:26:49;6.38;;;2.22;;
11982;SDS011;72623;51.184;7.176;2023-10-19T13:29:16;8.07;;;2.13;;
11982;SDS011;72623;51.184;7.176;2023-10-19T13:31:43;6.30;;;1.80;;
11982;SDS011;72623;51.184;7.176;2023-10-19T13:34:14;5.90;;;1.80;;
11982;SDS011;72623;51.184;7.176;2023-10-19T13:36:41;6.37;;;2.30;;
11982;SDS011;72623;51.184;7.176;2023-10-19T13:39:09;4.07;;;1.80;;
11982;SDS011;72623;51.184;7.176;2023-10-19T13:41:41;4.10;;;1.97;;
11982;SDS011;72623;51.184;7.176;2023-10-19T13:44:07;12.03;;;2.33;;
11982;SDS011;72623;51.184;7.176;2023-10-19T13:46:34;4.53;;;2.13;;
11982;SDS011;72623;51.184;7.176;2023-10-19T13:49:01;6.13;;;1.83;;
11982;SDS011;72623;51.184;7.176;2023-10-19T13:51:30;6.23;;;2.00;;
11982;SDS011;72623;51.184;7.176;2023-10-19T13:53:58;5.13;;;2.10;;
11982;SDS011;72623;51.184;7.176;2023-10-19T13:56:25;5.77;;;2.10;;
11982;SDS011;72623;51.184;7.176;2023-10-19T13:58:51;3.67;;;2.07;;
11982;SDS011;72623;51.184;7.176;2023-10-19T14:01:19;8.50;;;2.73;;
11982;SDS011;72623;51.184;7.176;2023-10-19T14:03:50;5.43;;;2.23;;
11982;SDS011;72623;51.184;7.176;2023-10-19T14:06:20;6.90;;;2.23;;
11982;SDS011;72623;51.184;7.176;2023-10-19T14:08:49;5.93;;;2.00;;
11982;SDS011;72623;51.184;7.176;2023-10-19T14:11:15;9.60;;;2.23;;
11982;SDS011;72623;51.184;7.176;2023-10-19T14:13:42;6.17;;;2.30;;
11982;SDS011;72623;51.184;7.176;2023-10-19T14:16:10;8.03;;;2.93;;
11982;SDS011;72623;51.184;7.176;2023-10-19T14:18:37;7.57;;;2.17;;
11982;SDS011;72623;51.184;7.176;2023-10-19T14:21:10;8.37;;;2.20;;
11982;SDS011;72623;51.184;7.176;2023-10-19T14:23:38;6.37;;;2.13;;
11982;SDS011;72623;51.184;7.176;2023-10-19T14:26:06;5.97;;;2.43;;
11982;SDS011;72623;51.184;7.176;2023-10-19T14:28:34;6.63;;;2.80;;
11982;SDS011;72623;51.184;7.176;2023-10-19T14:31:02;6.03;;;2.13;;
11982;SDS011;72623;51.184;7.176;2023-10-19T14:33:30;7.83;;;2.43;;
11982;SDS011;72623;51.184;7.176;2023-10-19T14:35:58;8.07;;;2.10;;
11982;SDS011;72623;51.184;7.176;2023-10-19T14:38:25;5.07;;;2.83;;
11982;SDS011;72623;51.184;7.176;2023-10-19T14:40:52;4.73;;;2.10;;
11982;SDS011;72623;51.184;7.176;2023-10-19T14:43:19;9.53;;;3.00;;
11982;SDS011;72623;51.184;7.176;2023-10-19T14:45:45;6.37;;;2.90;;
11982;SDS011;72623;51.184;7.176;2023-10-19T14:48:12;8.77;;;3.27;;
11982;SDS011;72623;51.184;7.176;2023-10-19T14:50:39;7.40;;;2.87;;
11982;SDS011;72623;51.184;7.176;2023-10-19T14:53:07;5.28;;;2.60;;
11982;SDS011;72623;51.184;7.176;2023-10-19T14:55:34;8.70;;;2.67;;
11982;SDS011;72623;51.184;7.176;2023-10-19T14:58:01;10.77;;;2.93;;
11982;SDS011;72623;51.184;7.176;2023-10-19T15:00:27;8.17;;;2.73;;
11982;SDS011;72623;51.184;7.176;2023-10-19T15:03:00;7.87;;;2.93;;
11982;SDS011;72623;51.184;7.176;2023-10-19T15:05:32;8.13;;;2.70;;
11982;SDS011;72623;51.184;7.176;2023-10-19T15:08:00;8.27;;;2.97;;
11982;SDS011;72623;51.184;7.176;2023-10-19T15:10:29;7.77;;;3.00;;
11982;SDS011;72623;51.184;7.176;2023-10-19T15:12:57;7.70;;;3.13;;